createdAt,value
2024-04-18T00:01:01.824Z,0.50
2024-04-18T00:02:27.977Z,0.50
2024-04-18T00:03:34.102Z,0.40
2024-04-18T00:04:40.830Z,0.50
2024-04-18T00:05:46.878Z,0.40
2024-04-18T00:06:53.141Z,0.50
2024-04-18T00:07:59.815Z,0.40
2024-04-18T00:09:06.034Z,0.50
2024-04-18T00:10:12.682Z,0.30
2024-04-18T00:11:18.970Z,0.40
2024-04-18T00:12:25.004Z,0.80
2024-04-18T00:13:31.250Z,0.50
2024-04-18T00:14:37.375Z,0.60
2024-04-18T00:15:43.451Z,0.50
2024-04-18T00:16:49.811Z,0.40
2024-04-18T00:17:56.334Z,0.50
2024-04-18T00:19:02.884Z,0.50
2024-04-18T00:20:10.886Z,0.50
2024-04-18T00:21:16.986Z,0.60
2024-04-18T00:22:23.220Z,0.60
2024-04-18T00:23:29.480Z,0.40
2024-04-18T00:24:35.568Z,0.40
2024-04-18T00:25:41.931Z,0.60
2024-04-18T00:26:48.117Z,0.50
2024-04-18T00:27:54.342Z,0.50
2024-04-18T00:29:00.499Z,0.50
2024-04-18T00:30:09.432Z,0.50
2024-04-18T00:31:16.016Z,0.50
2024-04-18T00:32:22.271Z,0.50
2024-04-18T00:33:28.549Z,0.50
2024-04-18T00:34:35.055Z,0.50
2024-04-18T00:35:41.648Z,0.50
2024-04-18T00:36:48.313Z,0.30
2024-04-18T00:37:54.564Z,0.70
2024-04-18T00:39:01.227Z,0.30
2024-04-18T00:40:09.472Z,0.50
2024-04-18T00:41:15.732Z,0.50
2024-04-18T00:42:21.897Z,0.50
2024-04-18T00:43:28.306Z,0.50
2024-04-18T00:44:34.414Z,0.50
2024-04-18T00:45:40.848Z,0.50
2024-04-18T00:46:47.032Z,0.40
2024-04-18T00:47:53.946Z,0.40
2024-04-18T00:49:01.353Z,0.40
2024-04-18T00:50:10.879Z,0.50
2024-04-18T00:51:17.655Z,0.50
2024-04-18T00:52:23.923Z,0.50
2024-04-18T00:53:31.203Z,0.60
2024-04-18T00:54:37.586Z,0.40
2024-04-18T00:55:43.687Z,0.50
2024-04-18T00:56:49.691Z,0.50
2024-04-18T00:57:56.417Z,0.50
2024-04-18T00:59:03.807Z,0.70
2024-04-18T01:00:12.915Z,0.50
2024-04-18T01:02:28.319Z,0.60
2024-04-18T01:03:35.617Z,0.50
2024-04-18T01:04:42.862Z,0.30
2024-04-18T01:05:49.667Z,0.40
2024-04-18T01:06:56.456Z,0.50
2024-04-18T01:08:02.840Z,0.40
2024-04-18T01:09:10.021Z,0.40
2024-04-18T01:10:16.127Z,0.40
2024-04-18T01:11:22.460Z,0.50
2024-04-18T01:12:28.904Z,0.40
2024-04-18T01:13:39.280Z,0.40
2024-04-18T01:14:45.669Z,0.40
2024-04-18T01:15:52.171Z,0.40
2024-04-18T01:16:58.212Z,0.40
2024-04-18T01:18:04.855Z,0.50
2024-04-18T01:19:18.366Z,0.70
2024-04-18T01:20:26.293Z,0.40
2024-04-18T01:21:32.870Z,0.40
2024-04-18T01:22:38.767Z,0.50
2024-04-18T01:23:44.711Z,0.40
2024-04-18T01:24:50.956Z,0.40
2024-04-18T01:25:58.087Z,0.50
2024-04-18T01:27:04.335Z,0.50
2024-04-18T01:28:10.726Z,0.40
2024-04-18T01:29:17.036Z,0.40
2024-04-18T01:30:23.504Z,0.50
2024-04-18T01:31:29.644Z,0.40
2024-04-18T01:32:36.941Z,0.30
2024-04-18T01:33:43.968Z,0.40
2024-04-18T01:34:50.749Z,0.40
2024-04-18T01:35:56.904Z,0.40
2024-04-18T01:37:03.236Z,0.40
2024-04-18T01:38:10.280Z,0.60
2024-04-18T01:39:17.033Z,0.40
2024-04-18T01:40:23.522Z,0.70
2024-04-18T01:41:29.856Z,0.80
2024-04-18T01:42:36.402Z,0.70
2024-04-18T01:43:42.809Z,1.00
2024-04-18T01:44:50.124Z,1.00
2024-04-18T01:45:56.367Z,1.10
2024-04-18T01:47:02.489Z,0.80
2024-04-18T01:48:10.493Z,1.00
2024-04-18T01:49:16.519Z,1.00
2024-04-18T01:50:23.170Z,1.20
2024-04-18T01:51:29.322Z,0.80
2024-04-18T01:52:36.182Z,1.20
2024-04-18T01:53:42.259Z,0.90
2024-04-18T01:54:48.741Z,0.80
2024-04-18T01:55:54.808Z,0.70
2024-04-18T01:57:01.072Z,0.70
2024-04-18T01:58:08.164Z,0.70
2024-04-18T01:59:14.547Z,0.80
2024-04-18T02:00:20.807Z,0.90
2024-04-18T02:01:28.314Z,0.90
2024-04-18T02:02:34.603Z,1.10
2024-04-18T02:03:40.936Z,1.20
2024-04-18T02:04:47.650Z,1.00
2024-04-18T02:05:53.597Z,0.90
2024-04-18T02:07:00.020Z,0.90
2024-04-18T02:08:07.660Z,1.00
2024-04-18T02:09:13.929Z,1.00
2024-04-18T02:10:20.732Z,0.80
2024-04-18T02:11:27.151Z,1.10
2024-04-18T02:12:33.279Z,1.20
2024-04-18T02:13:39.502Z,1.10
2024-04-18T02:14:46.504Z,1.00
2024-04-18T02:15:53.635Z,1.00
2024-04-18T02:16:59.646Z,1.00
2024-04-18T02:18:06.269Z,0.90
2024-04-18T02:19:12.474Z,1.00
2024-04-18T02:20:19.265Z,0.90
2024-04-18T02:21:25.596Z,1.00
2024-04-18T02:22:31.825Z,1.20
2024-04-18T02:23:37.842Z,1.00
2024-04-18T02:25:08.050Z,0.90
2024-04-18T02:26:14.319Z,0.80
2024-04-18T02:27:20.600Z,0.90
2024-04-18T02:28:26.612Z,0.80
2024-04-18T02:29:32.750Z,0.80
2024-04-18T02:30:38.941Z,0.90
2024-04-18T02:31:45.097Z,0.70
2024-04-18T02:32:51.355Z,0.70
2024-04-18T02:33:57.367Z,0.70
2024-04-18T02:35:05.578Z,0.80
2024-04-18T02:36:12.740Z,0.80
2024-04-18T02:37:18.757Z,0.90
2024-04-18T02:38:24.771Z,0.70
2024-04-18T02:39:31.091Z,0.70
2024-04-18T02:40:37.562Z,0.70
2024-04-18T02:41:44.086Z,0.60
2024-04-18T02:42:50.573Z,0.70
2024-04-18T02:43:57.477Z,0.40
2024-04-18T02:45:04.288Z,0.70
2024-04-18T02:46:10.825Z,0.60
2024-04-18T02:47:17.326Z,0.90
2024-04-18T02:48:24.139Z,0.50
2024-04-18T02:49:30.660Z,0.70
2024-04-18T02:50:36.800Z,0.70
2024-04-18T02:51:43.374Z,0.60
2024-04-18T02:52:49.602Z,0.70
2024-04-18T02:53:55.733Z,0.60
2024-04-18T02:55:02.190Z,0.70
2024-04-18T02:56:09.545Z,0.60
2024-04-18T02:57:15.877Z,0.50
2024-04-18T02:58:22.194Z,0.60
2024-04-18T02:59:28.323Z,0.50
2024-04-18T03:00:35.886Z,0.40
2024-04-18T03:01:42.327Z,0.50
2024-04-18T03:02:48.892Z,0.60
2024-04-18T03:03:55.397Z,0.60
2024-04-18T03:05:01.816Z,0.30
2024-04-18T03:06:08.959Z,0.60
2024-04-18T03:07:15.287Z,0.50
2024-04-18T03:08:21.452Z,0.50
2024-04-18T03:09:27.675Z,0.70
2024-04-18T03:10:34.443Z,0.50
2024-04-18T03:11:40.689Z,0.60
2024-04-18T03:12:46.809Z,0.30
2024-04-18T03:13:53.043Z,0.40
2024-04-18T03:14:59.816Z,0.40
2024-04-18T03:16:06.981Z,0.60
2024-04-18T03:17:13.160Z,0.50
2024-04-18T03:18:19.136Z,0.50
2024-04-18T03:19:25.188Z,0.30
2024-04-18T03:20:31.424Z,0.60
2024-04-18T03:21:37.634Z,0.60
2024-04-18T03:22:45.129Z,0.60
2024-04-18T03:23:51.852Z,0.70
2024-04-18T03:24:58.237Z,1.00
2024-04-18T03:26:04.685Z,0.90
2024-04-18T03:27:10.864Z,0.60
2024-04-18T03:28:17.401Z,1.20
2024-04-18T03:29:23.838Z,1.00
2024-04-18T03:30:30.254Z,0.90
2024-04-18T03:31:36.470Z,0.50
2024-04-18T03:32:43.033Z,0.60
2024-04-18T03:33:50.892Z,0.70
2024-04-18T03:34:58.198Z,0.40
2024-04-18T03:36:06.760Z,0.60
2024-04-18T03:37:13.214Z,0.40
2024-04-18T03:38:20.373Z,0.40
2024-04-18T03:39:28.480Z,0.60
2024-04-18T03:40:35.331Z,0.40
2024-04-18T03:41:41.435Z,0.40
2024-04-18T03:42:47.775Z,0.30
2024-04-18T03:43:54.620Z,0.50
2024-04-18T03:45:00.800Z,0.50
2024-04-18T03:46:07.232Z,0.60
2024-04-18T03:47:13.502Z,0.50
2024-04-18T03:48:19.860Z,0.50
2024-04-18T03:49:26.619Z,0.50
2024-04-18T03:50:32.682Z,0.60
2024-04-18T03:51:38.799Z,0.80
2024-04-18T03:52:45.327Z,0.60
2024-04-18T03:53:51.580Z,0.60
2024-04-18T03:55:02.167Z,0.30
2024-04-18T03:56:09.473Z,0.70
2024-04-18T03:57:15.599Z,0.50
2024-04-18T03:58:22.220Z,0.90
2024-04-18T03:59:28.020Z,0.50
2024-04-18T04:00:34.504Z,0.50
2024-04-18T04:01:40.738Z,0.80
2024-04-18T04:02:47.034Z,0.50
2024-04-18T04:03:53.840Z,0.60
2024-04-18T04:05:00.368Z,0.60
2024-04-18T04:06:08.057Z,0.60
2024-04-18T04:07:14.458Z,0.70
2024-04-18T04:08:21.214Z,0.50
2024-04-18T04:09:27.476Z,0.80
2024-04-18T04:10:33.511Z,0.80
2024-04-18T04:11:39.857Z,0.80
2024-04-18T04:12:46.184Z,1.00
2024-04-18T04:13:52.992Z,0.60
2024-04-18T04:14:59.047Z,0.80
2024-04-18T04:16:06.698Z,0.80
2024-04-18T04:17:13.444Z,0.70
2024-04-18T04:18:19.616Z,0.60
2024-04-18T04:19:26.343Z,0.60
2024-04-18T04:20:32.687Z,0.70
2024-04-18T04:21:39.576Z,0.80
2024-04-18T04:22:45.633Z,0.90
2024-04-18T04:23:51.891Z,0.70
2024-04-18T04:24:58.239Z,0.60
2024-04-18T04:26:04.968Z,0.40
2024-04-18T04:27:11.139Z,0.90
2024-04-18T04:28:17.289Z,0.70
2024-04-18T04:29:23.801Z,0.70
2024-04-18T04:30:30.073Z,0.80
2024-04-18T04:31:36.946Z,0.90
2024-04-18T04:32:43.021Z,0.70
2024-04-18T04:33:49.487Z,0.80
2024-04-18T04:34:55.743Z,0.80
2024-04-18T04:36:02.380Z,0.70
2024-04-18T04:37:08.603Z,0.70
2024-04-18T04:38:14.781Z,0.70
2024-04-18T04:39:21.630Z,0.80
2024-04-18T04:40:27.710Z,0.80
2024-04-18T04:41:33.955Z,0.60
2024-04-18T04:42:39.983Z,0.70
2024-04-18T04:43:46.491Z,0.80
2024-04-18T04:44:53.786Z,1.00
2024-04-18T04:45:59.956Z,0.70
2024-04-18T04:47:09.007Z,0.90
2024-04-18T04:48:16.020Z,0.50
2024-04-18T04:49:22.594Z,0.70
2024-04-18T04:50:29.769Z,0.60
2024-04-18T04:51:36.297Z,0.90
2024-04-18T04:52:42.571Z,0.80
2024-04-18T04:53:50.600Z,0.70
2024-04-18T04:54:58.744Z,0.80
2024-04-18T04:56:04.912Z,0.50
2024-04-18T04:57:11.506Z,0.30
2024-04-18T04:58:18.096Z,0.80
2024-04-18T04:59:24.448Z,0.50
2024-04-18T05:00:30.908Z,0.70
2024-04-18T05:01:37.592Z,0.70
2024-04-18T05:02:45.229Z,0.50
2024-04-18T05:03:53.450Z,0.40
2024-04-18T05:05:00.471Z,0.30
2024-04-18T05:06:07.339Z,0.30
2024-04-18T05:07:13.664Z,0.40
2024-04-18T05:08:19.891Z,0.70
2024-04-18T05:09:26.361Z,0.40
2024-04-18T05:10:32.769Z,0.50
2024-04-18T05:11:39.177Z,0.40
2024-04-18T05:12:45.610Z,0.50
2024-04-18T05:13:53.083Z,0.50
2024-04-18T05:14:59.716Z,0.60
2024-04-18T05:16:07.938Z,0.60
2024-04-18T05:17:14.383Z,0.50
2024-04-18T05:18:20.741Z,0.60
2024-04-18T05:19:27.206Z,0.70
2024-04-18T05:20:33.604Z,0.60
2024-04-18T05:21:40.525Z,0.70
2024-04-18T05:22:46.825Z,0.80
2024-04-18T05:23:53.385Z,0.70
2024-04-18T05:24:59.925Z,0.70
2024-04-18T05:26:06.991Z,0.80
2024-04-18T05:27:13.152Z,0.80
2024-04-18T05:28:30.853Z,0.90
2024-04-18T05:29:55.951Z,0.80
2024-04-18T05:31:03.131Z,0.70
2024-04-18T05:32:10.053Z,0.60
2024-04-18T05:33:17.858Z,0.90
2024-04-18T05:34:24.638Z,0.70
2024-04-18T05:35:30.776Z,0.50
2024-04-18T05:36:36.990Z,0.80
2024-04-18T05:37:43.631Z,0.70
2024-04-18T05:38:49.931Z,0.70
2024-04-18T05:39:56.361Z,0.80
2024-04-18T05:41:03.129Z,0.70
2024-04-18T05:42:09.877Z,0.90
2024-04-18T05:43:16.257Z,0.80
2024-04-18T05:44:25.118Z,1.00
2024-04-18T05:45:32.194Z,1.20
2024-04-18T05:46:38.901Z,0.90
2024-04-18T05:47:45.271Z,1.10
2024-04-18T05:48:52.635Z,1.00
2024-04-18T05:49:59.063Z,1.00
2024-04-18T05:51:06.540Z,1.10
2024-04-18T05:52:12.596Z,0.90
2024-04-18T05:53:19.924Z,0.90
2024-04-18T05:54:25.895Z,0.80
2024-04-18T05:55:33.328Z,1.10
2024-04-18T05:56:39.599Z,1.20
2024-04-18T05:57:46.129Z,1.10
2024-04-18T05:58:52.283Z,0.80
2024-04-18T05:59:59.671Z,0.90
2024-04-18T06:01:07.785Z,0.90
2024-04-18T06:02:14.324Z,1.00
2024-04-18T06:03:20.653Z,1.00
2024-04-18T06:04:27.418Z,0.90
2024-04-18T06:05:34.801Z,0.90
2024-04-18T06:06:41.625Z,1.00
2024-04-18T06:07:48.271Z,1.10
2024-04-18T06:08:55.469Z,1.00
2024-04-18T06:10:02.173Z,0.90
2024-04-18T06:11:08.916Z,1.10
2024-04-18T06:12:15.670Z,1.20
2024-04-18T06:13:26.198Z,1.20
2024-04-18T06:14:32.815Z,0.90
2024-04-18T06:15:44.503Z,1.00
2024-04-18T06:16:53.297Z,1.10
2024-04-18T06:18:00.091Z,1.20
2024-04-18T06:19:06.468Z,1.50
2024-04-18T06:20:13.624Z,1.40
2024-04-18T06:21:21.053Z,1.40
2024-04-18T06:22:27.396Z,1.30
2024-04-18T06:23:33.749Z,1.70
2024-04-18T06:24:42.277Z,1.30
2024-04-18T06:25:48.699Z,1.50
2024-04-18T06:26:55.327Z,1.50
2024-04-18T06:28:01.619Z,1.40
2024-04-18T06:29:09.302Z,1.50
2024-04-18T06:30:17.106Z,1.30
2024-04-18T06:31:23.768Z,1.30
2024-04-18T06:32:30.229Z,1.10
2024-04-18T06:33:38.406Z,1.20
2024-04-18T06:34:45.524Z,1.10
2024-04-18T06:35:51.750Z,1.30
2024-04-18T06:36:59.130Z,1.70
2024-04-18T06:38:05.764Z,1.50
2024-04-18T06:39:12.106Z,1.60
2024-04-18T06:40:24.262Z,1.60
2024-04-18T06:41:30.957Z,1.40
2024-04-18T06:42:38.121Z,1.90
2024-04-18T06:43:44.306Z,1.90
2024-04-18T06:44:50.448Z,1.60
2024-04-18T06:45:57.020Z,1.60
2024-04-18T06:47:04.146Z,1.60
2024-04-18T06:48:11.061Z,1.80
2024-04-18T06:49:17.748Z,1.60
2024-04-18T06:50:26.369Z,1.70
2024-04-18T06:51:33.446Z,1.60
2024-04-18T06:52:39.721Z,1.80
2024-04-18T06:53:46.242Z,1.40
2024-04-18T06:54:52.508Z,1.70
2024-04-18T06:56:00.742Z,1.90
2024-04-18T06:57:07.875Z,2.00
2024-04-18T06:58:14.507Z,1.50
2024-04-18T06:59:21.030Z,1.50
2024-04-18T07:00:28.240Z,1.70
2024-04-18T07:01:34.443Z,1.40
2024-04-18T07:02:41.302Z,1.90
2024-04-18T07:03:47.643Z,1.80
2024-04-18T07:04:54.737Z,1.80
2024-04-18T07:06:01.149Z,1.80
2024-04-18T07:07:09.420Z,1.70
2024-04-18T07:08:16.385Z,2.00
2024-04-18T07:09:23.073Z,2.20
2024-04-18T07:10:29.291Z,2.30
2024-04-18T07:11:35.729Z,2.30
2024-04-18T07:12:41.991Z,2.70
2024-04-18T07:13:49.864Z,2.10
2024-04-18T07:14:56.347Z,2.50
2024-04-18T07:16:04.789Z,3.00
2024-04-18T07:17:10.888Z,2.30
2024-04-18T07:18:17.690Z,2.10
2024-04-18T07:19:24.485Z,2.20
2024-04-18T07:20:32.260Z,2.40
2024-04-18T07:21:38.570Z,2.10
2024-04-18T07:22:44.745Z,2.20
2024-04-18T07:23:51.422Z,2.30
2024-04-18T07:24:57.787Z,2.70
2024-04-18T07:26:05.109Z,2.20
2024-04-18T07:27:11.433Z,2.50
2024-04-18T07:28:20.177Z,2.10
2024-04-18T07:29:26.527Z,3.20
2024-04-18T07:30:32.754Z,2.20
2024-04-18T07:31:39.789Z,2.10
2024-04-18T07:32:45.924Z,2.20
2024-04-18T07:33:52.692Z,2.30
2024-04-18T07:34:59.723Z,2.00
2024-04-18T07:36:07.462Z,2.20
2024-04-18T07:37:14.010Z,2.20
2024-04-18T07:38:22.016Z,2.00
2024-04-18T07:39:28.104Z,2.20
2024-04-18T07:40:34.391Z,2.70
2024-04-18T07:41:40.658Z,3.30
2024-04-18T07:42:49.805Z,2.70
2024-04-18T07:43:56.177Z,2.30
2024-04-18T07:45:02.823Z,2.20
2024-04-18T07:46:10.283Z,2.20
2024-04-18T07:47:16.377Z,2.40
2024-04-18T07:48:22.812Z,1.90
2024-04-18T07:49:29.968Z,2.00
2024-04-18T07:50:35.921Z,2.40
2024-04-18T07:51:43.575Z,2.00
2024-04-18T07:52:56.859Z,2.00
2024-04-18T07:54:10.375Z,1.60
2024-04-18T07:55:17.326Z,1.60
2024-04-18T07:56:24.556Z,2.00
2024-04-18T07:57:31.613Z,2.30
2024-04-18T07:58:38.828Z,2.40
2024-04-18T07:59:46.468Z,2.50
2024-04-18T08:00:55.272Z,1.90
2024-04-18T08:03:12.465Z,1.80
2024-04-18T08:04:44.487Z,1.70
2024-04-18T08:05:51.199Z,2.30
2024-04-18T08:07:00.680Z,1.90
2024-04-18T08:08:12.317Z,1.70
2024-04-18T08:09:23.830Z,1.90
2024-04-18T08:10:36.789Z,1.60
2024-04-18T08:12:22.357Z,1.60
2024-04-18T08:13:22.928Z,1.60
2024-04-18T08:14:35.559Z,1.50
2024-04-18T08:16:53.761Z,1.40
2024-04-18T08:18:00.817Z,1.40
2024-04-18T08:19:07.665Z,1.60
2024-04-18T08:20:13.976Z,1.30
2024-04-18T08:21:20.484Z,1.60
2024-04-18T08:22:26.901Z,1.50
2024-04-18T08:23:33.704Z,1.30
2024-04-18T08:24:41.188Z,1.30
2024-04-18T08:25:47.305Z,1.20
2024-04-18T08:26:53.998Z,1.50
2024-04-18T08:28:00.214Z,1.30
2024-04-18T08:29:08.739Z,1.40
2024-04-18T08:30:16.506Z,1.20
2024-04-18T08:31:22.935Z,1.20
2024-04-18T08:32:29.777Z,1.10
2024-04-18T08:33:35.969Z,1.60
2024-04-18T08:34:44.367Z,1.20
2024-04-18T08:36:55.384Z,1.60
2024-04-18T08:38:02.236Z,1.20
2024-04-18T08:39:09.777Z,1.30
2024-04-18T08:40:16.415Z,1.40
2024-04-18T08:41:22.604Z,1.50
2024-04-18T08:42:30.973Z,1.10
2024-04-18T08:43:37.576Z,1.50
2024-04-18T08:44:43.827Z,1.10
2024-04-18T08:45:52.468Z,1.70
2024-04-18T08:47:00.414Z,1.20
2024-04-18T08:48:10.959Z,1.40
2024-04-18T08:49:19.361Z,1.50
2024-04-18T08:50:27.656Z,1.40
2024-04-18T08:51:37.838Z,1.20
2024-04-18T08:52:45.243Z,1.30
2024-04-18T08:53:52.227Z,1.10
2024-04-18T08:54:58.991Z,1.30
2024-04-18T08:56:10.227Z,1.10
2024-04-18T08:57:20.346Z,1.60
2024-04-18T08:58:26.845Z,1.30
2024-04-18T08:59:34.076Z,1.30
2024-04-18T09:00:43.453Z,1.20
2024-04-18T09:02:56.391Z,1.60
2024-04-18T09:04:02.593Z,1.30
2024-04-18T09:05:11.148Z,2.10
2024-04-18T09:06:19.131Z,1.80
2024-04-18T09:07:25.191Z,2.20
2024-04-18T09:08:31.750Z,2.40
2024-04-18T09:09:37.914Z,2.00
2024-04-18T09:10:44.617Z,2.40
2024-04-18T09:11:50.811Z,2.60
2024-04-18T09:13:00.081Z,1.90
2024-04-18T09:14:08.521Z,1.90
2024-04-18T09:15:16.499Z,1.90
2024-04-18T09:16:24.991Z,2.50
2024-04-18T09:17:31.062Z,1.50
2024-04-18T09:18:39.257Z,1.30
2024-04-18T09:19:46.782Z,1.60
2024-04-18T09:20:52.959Z,1.60
2024-04-18T09:22:01.921Z,1.40
2024-04-18T09:23:08.408Z,1.40
2024-04-18T09:24:14.417Z,1.50
2024-04-18T09:25:22.442Z,1.20
2024-04-18T09:26:30.746Z,1.50
2024-04-18T09:27:38.365Z,1.50
2024-04-18T09:28:45.717Z,1.40
2024-04-18T09:29:52.287Z,0.80
2024-04-18T09:31:00.048Z,1.00
2024-04-18T09:32:09.196Z,1.10
2024-04-18T09:33:16.670Z,1.00
2024-04-18T09:34:24.725Z,0.80
2024-04-18T09:35:35.732Z,0.90
2024-04-18T09:36:43.340Z,0.90
2024-04-18T09:37:57.398Z,1.00
2024-04-18T09:39:19.946Z,0.60
2024-04-18T09:40:30.906Z,0.80
2024-04-18T09:41:41.880Z,0.60
2024-04-18T09:42:54.527Z,0.90
2024-04-18T09:44:08.167Z,0.90
2024-04-18T09:45:17.504Z,1.00
2024-04-18T09:46:24.984Z,0.90
2024-04-18T09:47:33.891Z,0.70
2024-04-18T09:49:49.164Z,0.80
2024-04-18T09:50:57.231Z,0.90
2024-04-18T09:52:05.169Z,0.70
2024-04-18T09:53:12.722Z,1.00
2024-04-18T09:54:20.360Z,1.10
2024-04-18T09:55:29.289Z,1.00
2024-04-18T09:56:38.158Z,1.00
2024-04-18T09:57:48.171Z,0.80
2024-04-18T09:58:56.574Z,0.80
2024-04-18T10:00:06.843Z,0.80
2024-04-18T10:01:15.261Z,1.00
2024-04-18T10:02:25.107Z,0.70
2024-04-18T10:03:32.042Z,0.90
2024-04-18T10:04:39.778Z,0.80
2024-04-18T10:05:51.945Z,0.60
2024-04-18T10:06:59.648Z,0.60
2024-04-18T10:08:08.678Z,0.60
2024-04-18T10:09:19.028Z,0.60
2024-04-18T10:10:27.467Z,0.70
2024-04-18T10:11:35.313Z,0.80
2024-04-18T10:12:43.259Z,0.50
2024-04-18T10:13:51.146Z,0.60
2024-04-18T10:14:58.190Z,0.50
2024-04-18T10:16:10.746Z,0.50
2024-04-18T10:17:30.299Z,0.50
2024-04-18T10:18:41.875Z,0.40
2024-04-18T10:19:51.490Z,0.60
2024-04-18T10:21:00.312Z,0.30
2024-04-18T10:23:35.930Z,0.30
2024-04-18T10:24:42.812Z,0.40
2024-04-18T10:25:49.264Z,0.40
2024-04-18T10:27:07.850Z,0.40
2024-04-18T10:28:24.723Z,0.70
2024-04-18T10:29:30.844Z,0.50
2024-04-18T10:30:42.685Z,0.70
2024-04-18T10:31:50.100Z,0.90
2024-04-18T10:32:56.613Z,0.60
2024-04-18T10:34:03.622Z,0.70
2024-04-18T10:35:12.088Z,0.90
2024-04-18T10:36:19.455Z,0.90
2024-04-18T10:37:25.914Z,0.70
2024-04-18T10:38:34.423Z,0.70
2024-04-18T10:39:44.370Z,0.70
2024-04-18T10:41:06.602Z,0.50
2024-04-18T10:42:13.957Z,0.70
2024-04-18T10:43:24.849Z,0.90
2024-04-18T10:44:31.280Z,0.80
2024-04-18T10:45:40.843Z,0.60
2024-04-18T10:46:47.842Z,0.90
2024-04-18T10:47:57.203Z,0.80
2024-04-18T10:49:04.792Z,0.60
2024-04-18T10:50:11.922Z,0.60
2024-04-18T10:51:19.379Z,0.50
2024-04-18T10:52:25.891Z,0.50
2024-04-18T10:53:33.451Z,0.80
2024-04-18T10:54:39.993Z,0.90
2024-04-18T10:55:46.970Z,0.90
2024-04-18T10:56:53.376Z,0.90
2024-04-18T10:58:00.855Z,0.90
2024-04-18T10:59:12.066Z,0.90
2024-04-18T11:00:22.484Z,0.80
2024-04-18T11:01:33.238Z,1.10
2024-04-18T11:02:39.766Z,1.00
2024-04-18T11:03:55.272Z,1.10
2024-04-18T11:05:03.574Z,1.10
2024-04-18T11:06:12.055Z,1.10
2024-04-18T11:08:35.176Z,0.80
2024-04-18T11:09:45.475Z,0.80
2024-04-18T11:10:52.242Z,0.80
2024-04-18T11:11:59.663Z,1.20
2024-04-18T11:13:08.402Z,1.30
2024-04-18T11:14:16.971Z,0.80
2024-04-18T11:15:25.972Z,1.20
2024-04-18T11:16:32.890Z,1.00
2024-04-18T11:17:42.375Z,0.90
2024-04-18T11:18:49.676Z,0.80
2024-04-18T11:19:58.807Z,1.40
2024-04-18T11:21:06.775Z,1.30
2024-04-18T11:22:13.411Z,0.90
2024-04-18T11:23:29.208Z,0.90
2024-04-18T11:24:41.744Z,0.90
2024-04-18T11:25:48.944Z,1.50
2024-04-18T11:26:55.399Z,1.90
2024-04-18T11:28:04.946Z,1.90
2024-04-18T11:29:11.930Z,1.70
2024-04-18T11:30:20.144Z,1.10
2024-04-18T11:31:26.938Z,1.40
2024-04-18T11:32:33.839Z,0.90
2024-04-18T11:33:41.640Z,0.90
2024-04-18T11:34:52.361Z,0.80
2024-04-18T11:36:01.956Z,0.80
2024-04-18T11:37:10.186Z,0.70
2024-04-18T11:38:20.136Z,1.00
2024-04-18T11:39:30.394Z,0.90
2024-04-18T11:40:37.515Z,0.80
2024-04-18T11:41:44.475Z,0.70
2024-04-18T11:42:50.676Z,0.80
2024-04-18T11:43:56.927Z,0.90
2024-04-18T11:45:06.280Z,0.70
2024-04-18T11:46:13.555Z,0.80
2024-04-18T11:47:20.148Z,1.40
2024-04-18T11:48:26.761Z,1.00
2024-04-18T11:49:32.807Z,0.80
2024-04-18T11:50:40.541Z,0.80
2024-04-18T11:51:46.787Z,0.80
2024-04-18T11:52:53.050Z,0.80
2024-04-18T11:53:59.505Z,1.00
2024-04-18T11:55:07.583Z,0.70
2024-04-18T11:56:13.636Z,0.90
2024-04-18T11:57:20.211Z,0.90
2024-04-18T11:58:26.947Z,0.80
2024-04-18T11:59:34.842Z,1.00
2024-04-18T12:00:42.010Z,1.30
2024-04-18T12:01:48.496Z,1.00
2024-04-18T12:02:55.162Z,1.10
2024-04-18T12:04:02.484Z,1.40
2024-04-18T12:05:09.762Z,1.20
2024-04-18T12:06:16.207Z,0.90
2024-04-18T12:07:22.422Z,0.90
2024-04-18T12:08:30.630Z,1.10
2024-04-18T12:09:43.897Z,0.80
2024-04-18T12:10:50.283Z,0.90
2024-04-18T12:11:56.747Z,0.80
2024-04-18T12:13:04.395Z,1.30
2024-04-18T12:14:10.428Z,1.00
2024-04-18T12:15:17.652Z,1.20
2024-04-18T12:16:25.858Z,0.80
2024-04-18T12:17:32.374Z,1.00
2024-04-18T12:18:39.144Z,1.00
2024-04-18T12:19:46.390Z,0.90
2024-04-18T12:20:54.047Z,1.00
2024-04-18T12:22:00.618Z,1.30
2024-04-18T12:23:06.864Z,2.10
2024-04-18T12:24:14.402Z,4.40
2024-04-18T12:25:22.485Z,3.80
2024-04-18T12:26:28.390Z,2.50
2024-04-18T12:27:35.029Z,2.40
2024-04-18T12:28:41.410Z,2.20
2024-04-18T12:29:48.980Z,1.30
2024-04-18T12:30:56.531Z,1.20
2024-04-18T12:32:02.937Z,0.90
2024-04-18T12:33:09.497Z,0.90
2024-04-18T12:34:15.540Z,0.80
2024-04-18T12:35:21.732Z,1.00
2024-04-18T12:36:29.991Z,2.80
2024-04-18T12:37:36.819Z,4.50
2024-04-18T12:38:45.747Z,5.10
2024-04-18T12:39:52.844Z,3.00
2024-04-18T12:41:03.011Z,1.40
2024-04-18T12:42:11.799Z,1.30
2024-04-18T12:43:20.433Z,1.50
2024-04-18T12:44:27.858Z,2.00
2024-04-18T12:45:35.812Z,3.50
2024-04-18T12:46:42.671Z,4.10
2024-04-18T12:47:50.694Z,2.80
2024-04-18T12:48:57.879Z,3.10
2024-04-18T12:50:06.779Z,2.50
2024-04-18T12:51:14.005Z,1.80
2024-04-18T12:52:20.016Z,1.70
2024-04-18T12:53:26.778Z,1.50
2024-04-18T12:54:33.088Z,2.00
2024-04-18T12:55:39.671Z,1.70
2024-04-18T12:56:49.487Z,2.10
2024-04-18T12:57:58.299Z,1.90
2024-04-18T12:59:04.939Z,1.90
2024-04-18T13:00:13.796Z,1.20
2024-04-18T13:01:21.195Z,1.20
2024-04-18T13:02:27.580Z,1.00
2024-04-18T13:03:34.653Z,1.20
2024-04-18T13:04:42.057Z,1.10
2024-04-18T13:05:48.686Z,1.10
2024-04-18T13:06:55.761Z,0.70
2024-04-18T13:08:03.867Z,0.90
2024-04-18T13:09:10.184Z,0.90
2024-04-18T13:10:18.797Z,0.90
2024-04-18T13:11:25.468Z,0.80
2024-04-18T13:12:32.070Z,0.90
2024-04-18T13:13:38.484Z,0.90
2024-04-18T13:14:45.089Z,0.80
2024-04-18T13:15:54.078Z,1.20
2024-04-18T13:17:02.388Z,1.10
2024-04-18T13:18:10.038Z,1.20
2024-04-18T13:19:16.922Z,1.10
2024-04-18T13:20:23.088Z,0.90
2024-04-18T13:21:29.411Z,1.10
2024-04-18T13:22:36.276Z,1.00
2024-04-18T13:23:43.823Z,1.20
2024-04-18T13:24:50.229Z,1.00
2024-04-18T13:25:57.827Z,1.10
2024-04-18T13:27:04.578Z,1.10
2024-04-18T13:28:10.928Z,1.00
2024-04-18T13:29:17.651Z,0.90
2024-04-18T13:30:24.593Z,1.10
2024-04-18T13:31:31.076Z,0.70
2024-04-18T13:32:38.921Z,0.70
2024-04-18T13:33:47.072Z,1.00
2024-04-18T13:34:56.134Z,0.70
2024-04-18T13:37:07.722Z,0.90
2024-04-18T13:38:15.516Z,1.10
2024-04-18T13:39:22.874Z,1.20
2024-04-18T13:40:29.418Z,1.10
2024-04-18T13:41:44.085Z,1.00
2024-04-18T13:42:50.571Z,1.20
2024-04-18T13:43:57.129Z,1.00
2024-04-18T13:45:04.012Z,1.10
2024-04-18T13:46:11.372Z,1.30
2024-04-18T13:47:18.036Z,1.10
2024-04-18T13:48:24.368Z,0.90
2024-04-18T13:49:31.222Z,1.00
2024-04-18T13:50:37.548Z,1.00
2024-04-18T13:51:43.688Z,1.20
2024-04-18T13:52:49.907Z,1.20
2024-04-18T13:53:57.884Z,1.20
2024-04-18T13:55:04.150Z,1.20
2024-04-18T13:56:10.506Z,1.40
2024-04-18T13:57:17.990Z,1.30
2024-04-18T13:58:25.070Z,1.30
2024-04-18T13:59:31.199Z,1.20
2024-04-18T14:00:37.943Z,1.20
2024-04-18T14:01:44.170Z,1.80
2024-04-18T14:02:50.878Z,1.30
2024-04-18T14:03:58.340Z,1.50
2024-04-18T14:05:05.026Z,1.50
2024-04-18T14:06:11.588Z,1.50
2024-04-18T14:07:18.853Z,1.70
2024-04-18T14:08:25.307Z,1.70
2024-04-18T14:09:42.853Z,1.90
2024-04-18T14:10:49.042Z,1.90
2024-04-18T14:11:56.610Z,2.10
2024-04-18T14:13:04.081Z,1.90
2024-04-18T14:14:10.896Z,1.80
2024-04-18T14:15:28.562Z,1.80
2024-04-18T14:16:53.781Z,2.30
2024-04-18T14:18:18.676Z,1.90
2024-04-18T14:19:25.819Z,1.80
2024-04-18T14:20:32.835Z,2.20
2024-04-18T14:21:40.024Z,2.10
2024-04-18T14:22:46.504Z,2.60
2024-04-18T14:23:53.321Z,2.40
2024-04-18T14:24:59.407Z,2.40
2024-04-18T14:26:06.409Z,2.30
2024-04-18T14:27:13.207Z,2.60
2024-04-18T14:28:27.155Z,2.30
2024-04-18T14:29:38.252Z,2.70
2024-04-18T14:30:44.284Z,2.50
2024-04-18T14:31:50.423Z,2.60
2024-04-18T14:32:56.873Z,2.50
2024-04-18T14:34:03.340Z,2.30
2024-04-18T14:35:10.383Z,2.50
2024-04-18T14:36:16.946Z,2.20
2024-04-18T14:37:23.204Z,2.40
2024-04-18T14:38:29.724Z,1.80
2024-04-18T14:39:35.597Z,2.30
2024-04-18T14:40:49.950Z,2.20
2024-04-18T14:42:03.283Z,2.40
2024-04-18T14:43:09.628Z,2.60
2024-04-18T14:44:16.055Z,2.40
2024-04-18T14:45:22.669Z,2.50
2024-04-18T14:46:29.043Z,2.30
2024-04-18T14:47:35.527Z,2.30
2024-04-18T14:48:44.379Z,2.60
2024-04-18T14:49:50.848Z,2.20
2024-04-18T14:50:56.912Z,2.50
2024-04-18T14:52:03.366Z,2.10
2024-04-18T14:53:09.529Z,2.00
2024-04-18T14:54:15.896Z,2.90
2024-04-18T14:55:25.219Z,2.60
2024-04-18T14:56:31.917Z,2.60
2024-04-18T14:57:38.293Z,3.00
2024-04-18T14:58:44.761Z,2.70
2024-04-18T14:59:51.292Z,3.10
2024-04-18T15:00:57.509Z,2.60
2024-04-18T15:02:04.094Z,3.30
2024-04-18T15:03:10.246Z,3.40
2024-04-18T15:04:17.272Z,2.40
2024-04-18T15:05:23.387Z,3.50
2024-04-18T15:06:29.767Z,3.00
2024-04-18T15:07:37.861Z,2.90
2024-04-18T15:08:44.592Z,2.40
2024-04-18T15:09:51.148Z,1.90